Time;durP1;ratioP1;P1;durP2;ratioP2;P2;SDS_P1;SDS_P2;PMS_P1;PMS_P2;Temp;Humidity;BMP_temperature;BMP_pressure;BME280_temperature;BME280_humidity;BME280_pressure;Samples;Min_cycle;Max_cycle;Signal;HPM_P1;HPM_P2
2023/07/27 00:00:17;;;;;;;19.15;7.88;;;;;;;-147.95;100.00;58458.38;4998842;28;20041;-72
2023/07/27 00:03:02;;;;;;;19.35;7.53;;;;;;;-147.95;100.00;58458.38;5004919;28;20100;-72
2023/07/27 00:05:48;;;;;;;15.15;7.95;;;;;;;-147.95;100.00;58458.38;5001804;28;20061;-73
2023/07/27 00:08:34;;;;;;;14.63;6.97;;;;;;;-147.95;100.00;58458.38;4994013;28;20073;-73
2023/07/27 00:11:20;;;;;;;19.70;7.00;;;;;;;-147.95;100.00;58458.38;5008030;28;20871;-73
2023/07/27 00:14:05;;;;;;;13.73;5.93;;;;;;;-147.95;100.00;58458.38;5002220;28;20081;-74
2023/07/27 00:16:51;;;;;;;12.82;6.38;;;;;;;-147.95;100.00;58458.38;4989581;28;20129;-73
2023/07/27 00:19:37;;;;;;;10.55;6.13;;;;;;;-147.95;100.00;58458.38;5002890;28;20110;-73
2023/07/27 00:22:23;;;;;;;9.65;5.28;;;;;;;-147.95;100.00;58458.38;4977874;28;20053;-73
2023/07/27 00:25:08;;;;;;;15.10;5.57;;;;;;;-147.95;100.00;58458.38;4999130;28;20098;-73
2023/07/27 00:27:54;;;;;;;14.30;5.00;;;;;;;-147.95;100.00;58458.38;4993820;28;20096;-73
2023/07/27 00:30:40;;;;;;;13.15;5.82;;;;;;;-147.95;100.00;58458.38;5001093;28;20049;-73
2023/07/27 00:33:26;;;;;;;11.35;4.88;;;;;;;-147.95;100.00;58458.38;4967732;28;20072;-74
2023/07/27 00:36:11;;;;;;;10.23;5.10;;;;;;;-147.95;100.00;58458.38;4997577;28;20061;-74
2023/07/27 00:38:57;;;;;;;12.55;5.45;;;;;;;-147.95;100.00;58458.38;4995285;28;20049;-74
2023/07/27 00:41:43;;;;;;;8.43;5.30;;;;;;;-147.95;100.00;58458.38;4985113;28;20038;-74
2023/07/27 00:44:29;;;;;;;10.98;5.50;;;;;;;-147.95;100.00;58458.38;4995917;28;20045;-74
2023/07/27 00:47:14;;;;;;;17.95;6.22;;;;;;;-147.95;100.00;58458.38;4999269;28;20046;-74
2023/07/27 00:50:01;;;;;;;12.38;5.53;;;;;;;-147.95;100.00;58458.38;5007527;28;20038;-74
2023/07/27 00:52:47;;;;;;;11.85;5.75;;;;;;;-147.95;100.00;58458.38;5002379;28;20054;-73
2023/07/27 00:55:39;;;;;;;8.40;5.30;;;;;;;-147.95;100.00;58458.38;5002543;28;20039;-75
2023/07/27 00:58:29;;;;;;;9.60;5.45;;;;;;;-147.95;100.00;58458.38;4991891;28;20047;-73
2023/07/27 01:01:16;;;;;;;16.77;5.85;;;;;;;-147.95;100.00;58458.38;5004997;28;20037;-74
2023/07/27 01:04:02;;;;;;;12.63;5.93;;;;;;;-147.95;100.00;58458.38;4995912;28;20085;-73
2023/07/27 01:06:48;;;;;;;13.55;5.68;;;;;;;-147.95;100.00;58458.38;5001835;28;20125;-73
2023/07/27 01:09:34;;;;;;;9.00;5.53;;;;;;;-147.95;100.00;58458.38;5005065;28;21187;-73
2023/07/27 01:12:31;;;;;;;10.57;5.15;;;;;;;-147.95;100.00;58458.38;5003868;28;20541;-73
2023/07/27 01:15:22;;;;;;;16.27;5.95;;;;;;;-147.95;100.00;58458.38;5004503;28;20045;-74
2023/07/27 01:18:18;;;;;;;18.20;6.50;;;;;;;-147.95;100.00;58458.38;5000255;28;20049;-73
2023/07/27 01:21:06;;;;;;;12.02;5.97;;;;;;;-147.95;100.00;58458.38;5007093;28;20071;-73
2023/07/27 01:24:14;;;;;;;13.85;6.50;;;;;;;-147.95;100.00;58458.38;5004171;28;20199;-73
2023/07/27 01:27:18;;;;;;;13.93;6.85;;;;;;;-147.95;100.00;58458.38;5009845;28;20097;-73
2023/07/27 01:30:22;;;;;;;16.73;7.15;;;;;;;-147.95;100.00;58458.38;5009447;28;20050;-73
2023/07/27 01:33:11;;;;;;;13.13;6.55;;;;;;;-147.95;100.00;58458.38;5003948;28;20080;-74
2023/07/27 01:36:15;;;;;;;25.23;7.40;;;;;;;-147.95;100.00;58458.38;5014278;28;20049;-73
2023/07/27 01:39:03;;;;;;;13.93;6.93;;;;;;;-147.95;100.00;58458.38;5001590;28;20143;-74
2023/07/27 01:41:51;;;;;;;12.40;7.70;;;;;;;-147.95;100.00;58458.38;5004179;28;20050;-73
2023/07/27 01:44:38;;;;;;;17.13;7.50;;;;;;;-147.95;100.00;58458.38;5006165;28;20073;-73
2023/07/27 01:47:25;;;;;;;19.10;8.38;;;;;;;-147.95;100.00;58458.38;5018748;28;20490;-74
2023/07/27 01:50:13;;;;;;;17.05;8.15;;;;;;;-147.95;100.00;58458.38;5003833;28;20052;-73
2023/07/27 01:53:00;;;;;;;22.60;9.02;;;;;;;-147.95;100.00;58458.38;4983925;28;20048;-73
2023/07/27 01:55:47;;;;;;;18.25;9.35;;;;;;;-147.95;100.00;58458.38;5006795;28;20497;-73
2023/07/27 01:58:37;;;;;;;18.10;8.90;;;;;;;-147.95;100.00;58458.38;5005849;28;20072;-74
2023/07/27 02:01:23;;;;;;;17.83;9.85;;;;;;;-147.95;100.00;58458.38;5005306;28;20080;-73
2023/07/27 02:04:10;;;;;;;18.33;9.90;;;;;;;-147.95;100.00;58458.38;5007518;28;20058;-73
2023/07/27 02:06:55;;;;;;;17.13;10.50;;;;;;;-147.95;100.00;58458.38;5005899;28;20146;-73
2023/07/27 02:09:41;;;;;;;21.40;10.57;;;;;;;-147.95;100.00;58458.38;5006661;28;20038;-74
2023/07/27 02:12:41;;;;;;;21.42;10.48;;;;;;;-147.95;100.00;58458.38;5009662;28;20073;-73
2023/07/27 02:15:32;;;;;;;20.17;11.20;;;;;;;-147.95;100.00;58458.38;5005857;28;21984;-73
2023/07/27 02:18:23;;;;;;;20.77;11.43;;;;;;;-147.95;100.00;58458.38;5009853;28;20761;-73
2023/07/27 02:21:09;;;;;;;23.45;11.75;;;;;;;-147.95;100.00;58458.38;5011673;28;20034;-73
2023/07/27 02:23:55;;;;;;;24.88;10.63;;;;;;;-147.95;100.00;58458.38;5008381;28;20038;-74
2023/07/27 02:26:42;;;;;;;23.40;11.60;;;;;;;-147.95;100.00;58458.38;5007483;28;20038;-73
2023/07/27 02:29:28;;;;;;;19.80;12.20;;;;;;;-147.95;100.00;58458.38;5009510;28;20041;-73
2023/07/27 02:32:14;;;;;;;28.77;12.25;;;;;;;-147.95;100.00;58458.38;5006700;28;20041;-72
2023/07/27 02:34:59;;;;;;;29.75;13.68;;;;;;;-147.95;100.00;58458.38;5005004;28;20049;-73
2023/07/27 02:37:45;;;;;;;22.60;12.85;;;;;;;-147.95;100.00;58458.38;4995089;28;20049;-73
2023/07/27 02:40:31;;;;;;;30.60;14.98;;;;;;;-147.95;100.00;58458.38;5006893;28;20034;-73
2023/07/27 02:43:18;;;;;;;29.55;14.13;;;;;;;-147.95;100.00;58458.38;5004161;28;20065;-73
2023/07/27 02:46:05;;;;;;;26.05;14.55;;;;;;;-147.95;100.00;58458.38;5001984;28;20050;-73
2023/07/27 02:48:53;;;;;;;27.98;14.05;;;;;;;-147.95;100.00;58458.38;5004874;28;20034;-73
2023/07/27 02:51:41;;;;;;;30.02;15.93;;;;;;;-147.95;100.00;58458.38;5004749;28;20401;-73
2023/07/27 02:54:26;;;;;;;26.30;15.43;;;;;;;-147.95;100.00;58458.38;5003319;28;20045;-72
2023/07/27 02:57:12;;;;;;;31.30;14.90;;;;;;;-147.95;100.00;58458.38;4992577;28;20038;-73
2023/07/27 02:59:58;;;;;;;32.15;16.55;;;;;;;-147.95;100.00;58458.38;5005404;28;20046;-73
2023/07/27 03:02:45;;;;;;;33.60;16.23;;;;;;;-147.95;100.00;58458.38;5005301;28;20062;-73
2023/07/27 03:05:30;;;;;;;25.48;13.93;;;;;;;-147.95;100.00;58458.38;5004394;28;20117;-73
2023/07/27 03:08:16;;;;;;;25.75;13.57;;;;;;;-147.95;100.00;58458.38;5008885;28;20100;-73
2023/07/27 03:11:03;;;;;;;23.17;12.07;;;;;;;-147.95;100.00;58458.38;5007896;28;20057;-74
2023/07/27 03:13:50;;;;;;;27.52;11.90;;;;;;;-147.95;100.00;58458.38;5002877;28;20502;-73
2023/07/27 03:16:36;;;;;;;22.30;11.57;;;;;;;-147.95;100.00;58458.38;5001021;28;20041;-74
2023/07/27 03:19:21;;;;;;;22.85;11.00;;;;;;;-147.95;100.00;58458.38;4996135;28;20046;-73
2023/07/27 03:22:07;;;;;;;20.02;10.65;;;;;;;-147.95;100.00;58458.38;4993874;28;20545;-73
2023/07/27 03:24:53;;;;;;;19.45;11.07;;;;;;;-147.95;100.00;58458.38;4994496;28;20037;-74
2023/07/27 03:27:38;;;;;;;23.75;11.98;;;;;;;-147.95;100.00;58458.38;4989672;28;20073;-74
2023/07/27 03:30:24;;;;;;;22.20;11.75;;;;;;;-147.95;100.00;58458.38;5016295;28;20041;-74
2023/07/27 03:33:10;;;;;;;22.38;12.65;;;;;;;-147.95;100.00;58458.38;5007035;28;20080;-74
2023/07/27 03:35:55;;;;;;;26.77;11.80;;;;;;;-147.95;100.00;58458.38;5008819;28;20041;-74
2023/07/27 03:38:41;;;;;;;23.23;12.13;;;;;;;-147.95;100.00;58458.38;4990240;28;20056;-75
2023/07/27 03:41:27;;;;;;;22.13;10.98;;;;;;;-147.95;100.00;58458.38;5007295;28;20153;-75
2023/07/27 03:44:14;;;;;;;24.70;12.05;;;;;;;-147.95;100.00;58458.38;5013378;28;20057;-74
2023/07/27 03:46:59;;;;;;;26.13;11.23;;;;;;;-147.95;100.00;58458.38;5000516;28;20068;-75
2023/07/27 03:49:45;;;;;;;21.40;11.25;;;;;;;-147.95;100.00;58458.38;5004443;28;20100;-74
2023/07/27 03:52:31;;;;;;;21.75;11.48;;;;;;;-147.95;100.00;58458.38;5004049;28;20042;-75
2023/07/27 03:55:18;;;;;;;26.63;11.82;;;;;;;-147.95;100.00;58458.38;4990910;28;20382;-74
2023/07/27 03:58:04;;;;;;;20.45;11.93;;;;;;;-147.95;100.00;58458.38;5006305;28;20037;-74
2023/07/27 04:00:50;;;;;;;27.17;11.80;;;;;;;-147.95;100.00;58458.38;5004651;28;20046;-74
2023/07/27 04:03:36;;;;;;;20.35;11.05;;;;;;;-147.95;100.00;58458.38;5007162;28;20050;-74
2023/07/27 04:06:21;;;;;;;27.40;10.60;;;;;;;-147.95;100.00;58458.38;5008059;28;20053;-73
2023/07/27 04:09:08;;;;;;;20.60;10.55;;;;;;;-147.95;100.00;58458.38;5009395;28;20045;-74
2023/07/27 04:11:54;;;;;;;19.95;10.93;;;;;;;-147.95;100.00;58458.38;5008115;28;20037;-74
2023/07/27 04:14:39;;;;;;;23.80;11.45;;;;;;;-147.95;100.00;58458.38;4996853;28;20073;-74
2023/07/27 04:17:25;;;;;;;32.70;10.55;;;;;;;-147.95;100.00;58458.38;5008732;28;20460;-74
2023/07/27 04:20:11;;;;;;;21.95;10.93;;;;;;;-147.95;100.00;58458.38;5006997;28;20589;-74
2023/07/27 04:22:57;;;;;;;18.65;11.00;;;;;;;-147.95;100.00;58458.38;5005988;28;20042;-74
2023/07/27 04:25:42;;;;;;;21.58;11.02;;;;;;;-147.95;100.00;58458.38;4991017;28;20101;-74
2023/07/27 04:28:28;;;;;;;24.73;12.13;;;;;;;-147.95;100.00;58458.38;5009146;28;20097;-74
2023/07/27 04:31:14;;;;;;;26.77;10.90;;;;;;;-147.95;100.00;58458.38;5000021;28;20045;-74
2023/07/27 04:33:59;;;;;;;24.70;11.75;;;;;;;-147.95;100.00;58458.38;5011004;28;20041;-75
2023/07/27 04:36:47;;;;;;;20.35;11.38;;;;;;;-147.95;100.00;58458.38;5004852;28;20129;-74
2023/07/27 04:39:33;;;;;;;24.75;11.20;;;;;;;-147.95;100.00;58458.38;5003251;28;20061;-74
2023/07/27 04:42:18;;;;;;;21.75;10.70;;;;;;;-147.95;100.00;58458.38;5006535;28;20516;-75
2023/07/27 04:45:04;;;;;;;22.85;11.63;;;;;;;-147.95;100.00;58458.38;5012687;28;20105;-76
2023/07/27 04:47:50;;;;;;;25.30;14.00;;;;;;;-147.95;100.00;58458.38;4999783;28;20101;-76
2023/07/27 04:50:36;;;;;;;27.33;14.98;;;;;;;-147.95;100.00;58458.38;4999939;28;20473;-75
2023/07/27 04:53:22;;;;;;;26.98;14.13;;;;;;;-147.95;100.00;58458.38;4979881;28;20505;-73
2023/07/27 04:56:07;;;;;;;28.30;13.50;;;;;;;-147.95;100.00;58458.38;4982819;28;20042;-73
2023/07/27 04:58:54;;;;;;;27.33;13.13;;;;;;;-147.95;100.00;58458.38;5002102;28;20113;-74
2023/07/27 05:01:40;;;;;;;20.33;11.43;;;;;;;-147.95;100.00;58458.38;5007033;28;20048;-73
2023/07/27 05:04:25;;;;;;;26.02;12.98;;;;;;;-147.95;100.00;58458.38;4997180;28;20057;-73
2023/07/27 05:07:11;;;;;;;23.88;11.90;;;;;;;-147.95;100.00;58458.38;5006498;28;20100;-74
2023/07/27 05:09:57;;;;;;;25.77;12.48;;;;;;;-147.95;100.00;58458.38;4993659;28;20042;-74
2023/07/27 05:12:42;;;;;;;23.30;12.60;;;;;;;-147.95;100.00;58458.38;5007306;28;20075;-74
2023/07/27 05:15:28;;;;;;;25.05;12.23;;;;;;;-147.95;100.00;58458.38;5009921;28;20049;-74
2023/07/27 05:18:14;;;;;;;25.38;12.23;;;;;;;-147.95;100.00;58458.38;5005772;28;20100;-74
2023/07/27 05:21:00;;;;;;;25.88;11.55;;;;;;;-147.95;100.00;58458.38;4980115;28;20128;-73
2023/07/27 05:23:46;;;;;;;24.05;10.75;;;;;;;-147.95;100.00;58458.38;4989636;28;20073;-74
2023/07/27 05:26:31;;;;;;;22.35;11.10;;;;;;;-147.95;100.00;58458.38;5006431;28;20428;-74
2023/07/27 05:29:18;;;;;;;22.70;10.93;;;;;;;-147.95;100.00;58458.38;4982106;28;20497;-73
2023/07/27 05:32:04;;;;;;;20.85;10.30;;;;;;;-147.95;100.00;58458.38;5005466;28;20424;-75
2023/07/27 05:34:49;;;;;;;18.33;11.10;;;;;;;-147.95;100.00;58458.38;5004653;28;20433;-76
2023/07/27 05:37:35;;;;;;;22.05;10.90;;;;;;;-147.95;100.00;58458.38;5001549;28;20049;-75
2023/07/27 05:40:21;;;;;;;20.17;11.13;;;;;;;-147.95;100.00;58458.38;5005881;28;20186;-76
2023/07/27 05:43:07;;;;;;;20.83;10.57;;;;;;;-147.95;100.00;58458.38;5001155;28;20123;-76
2023/07/27 05:45:52;;;;;;;21.23;9.77;;;;;;;-147.95;100.00;58458.38;5007794;28;20477;-76
2023/07/27 05:48:38;;;;;;;19.10;10.15;;;;;;;-147.95;100.00;58458.38;5002051;28;20046;-75
2023/07/27 05:51:24;;;;;;;19.13;10.85;;;;;;;-147.95;100.00;58458.38;4982516;28;20048;-75
2023/07/27 05:54:10;;;;;;;22.13;9.82;;;;;;;-147.95;100.00;58458.38;5007766;28;20050;-74
2023/07/27 05:56:55;;;;;;;27.42;10.63;;;;;;;-147.95;100.00;58458.38;5002502;28;20165;-73
2023/07/27 05:59:41;;;;;;;23.90;10.05;;;;;;;-147.95;100.00;58458.38;5005566;28;20045;-74
2023/07/27 06:02:27;;;;;;;20.33;10.23;;;;;;;-147.95;100.00;58458.38;5002909;28;20042;-74
2023/07/27 06:05:12;;;;;;;21.10;10.95;;;;;;;-147.95;100.00;58458.38;4998479;28;20045;-74
2023/07/27 06:07:58;;;;;;;17.15;9.90;;;;;;;-147.95;100.00;58458.38;4987640;28;20077;-74
2023/07/27 06:10:44;;;;;;;15.10;9.95;;;;;;;-147.95;100.00;58458.38;4986283;28;20065;-75
2023/07/27 06:13:31;;;;;;;20.23;9.68;;;;;;;-147.95;100.00;58458.38;5002291;28;20076;-74
2023/07/27 06:16:17;;;;;;;13.52;9.25;;;;;;;-147.95;100.00;58458.38;5006899;28;20037;-75
2023/07/27 06:19:02;;;;;;;13.65;9.10;;;;;;;-147.95;100.00;58458.38;4995952;28;20042;-76
2023/07/27 06:21:48;;;;;;;12.18;8.60;;;;;;;-147.95;100.00;58458.38;5010856;28;20042;-76
2023/07/27 06:24:34;;;;;;;13.40;8.10;;;;;;;-147.95;100.00;58458.38;5001371;28;20137;-76
2023/07/27 06:27:19;;;;;;;12.57;8.25;;;;;;;-147.95;100.00;58458.38;5005351;28;20038;-76
2023/07/27 06:30:08;;;;;;;11.15;8.00;;;;;;;-147.95;100.00;58458.38;5006010;28;20049;-75
2023/07/27 06:32:54;;;;;;;14.30;7.25;;;;;;;-147.95;100.00;58458.38;4993914;28;20061;-75
2023/07/27 06:35:40;;;;;;;11.25;6.55;;;;;;;-147.95;100.00;58458.38;5007081;28;20068;-74
2023/07/27 06:38:26;;;;;;;8.07;6.18;;;;;;;-147.95;100.00;58458.38;5002925;28;20410;-74
2023/07/27 06:41:11;;;;;;;14.20;6.47;;;;;;;-147.95;100.00;58458.38;4987595;28;20057;-74
2023/07/27 06:43:57;;;;;;;10.98;6.78;;;;;;;-147.95;100.00;58458.38;5002438;28;20049;-74
2023/07/27 06:46:43;;;;;;;9.30;5.97;;;;;;;-147.95;100.00;58458.38;4990713;28;20497;-75
2023/07/27 06:49:28;;;;;;;9.90;5.68;;;;;;;-147.95;100.00;58458.38;4995949;28;20088;-74
2023/07/27 06:52:14;;;;;;;8.68;6.40;;;;;;;-147.95;100.00;58458.38;4994627;28;20050;-75
2023/07/27 06:55:00;;;;;;;8.40;5.28;;;;;;;-147.95;100.00;58458.38;5001765;28;20038;-74
2023/07/27 06:57:46;;;;;;;8.77;5.53;;;;;;;-147.95;100.00;58458.38;5004165;28;20536;-74
2023/07/27 07:00:32;;;;;;;8.57;5.45;;;;;;;-147.95;100.00;58458.38;4993764;28;20037;-74
2023/07/27 07:03:18;;;;;;;7.45;5.30;;;;;;;-147.95;100.00;58458.38;5001381;28;20051;-74
2023/07/27 07:06:03;;;;;;;10.13;5.97;;;;;;;-147.95;100.00;58458.38;5006381;28;20034;-76
2023/07/27 07:08:49;;;;;;;7.05;5.40;;;;;;;-147.95;100.00;58458.38;5003872;28;20096;-76
2023/07/27 07:11:35;;;;;;;6.10;4.32;;;;;;;-147.95;100.00;58458.38;4996915;28;20048;-76
2023/07/27 07:14:21;;;;;;;4.20;3.80;;;;;;;-147.95;100.00;58458.38;4999035;28;20033;-76
2023/07/27 07:17:06;;;;;;;6.25;4.85;;;;;;;-147.95;100.00;58458.38;4998439;28;20145;-76
2023/07/27 07:19:53;;;;;;;9.27;5.15;;;;;;;-147.95;100.00;58458.38;5003831;28;20069;-76
2023/07/27 07:22:39;;;;;;;8.15;5.05;;;;;;;-147.95;100.00;58458.38;5003326;28;20512;-76
2023/07/27 07:25:24;;;;;;;9.00;4.80;;;;;;;-147.95;100.00;58458.38;4998369;28;20558;-76
2023/07/27 07:28:10;;;;;;;6.30;5.10;;;;;;;-147.95;100.00;58458.38;5001414;28;20061;-75
2023/07/27 07:30:56;;;;;;;6.80;4.50;;;;;;;-147.95;100.00;58458.38;5006435;28;20038;-75
2023/07/27 07:33:42;;;;;;;6.88;4.82;;;;;;;-147.95;100.00;58458.38;5008996;28;20034;-76
2023/07/27 07:36:27;;;;;;;6.80;4.93;;;;;;;-147.95;100.00;58458.38;4997958;28;20456;-76
2023/07/27 07:39:13;;;;;;;6.78;5.65;;;;;;;-147.95;100.00;58458.38;5009543;28;20034;-75
2023/07/27 07:42:00;;;;;;;6.32;5.07;;;;;;;-147.95;100.00;58458.38;5012893;28;20037;-76
2023/07/27 07:44:48;;;;;;;5.80;4.68;;;;;;;-147.95;100.00;58458.38;5015300;28;20073;-76
2023/07/27 07:47:34;;;;;;;7.38;4.93;;;;;;;-147.95;100.00;58458.38;5010453;28;20045;-76
2023/07/27 07:50:20;;;;;;;6.93;4.65;;;;;;;-147.95;100.00;58458.38;5006190;28;20038;-75
2023/07/27 07:53:06;;;;;;;6.68;5.05;;;;;;;-147.95;100.00;58458.38;4999273;28;20125;-76
2023/07/27 07:55:51;;;;;;;7.90;5.45;;;;;;;-147.95;100.00;58458.38;4995575;28;20048;-76
2023/07/27 07:58:37;;;;;;;10.85;5.13;;;;;;;-147.95;100.00;58458.38;5002379;28;20556;-76
2023/07/27 08:01:23;;;;;;;8.70;6.10;;;;;;;-147.95;100.00;58458.38;5007154;28;20498;-76
2023/07/27 08:04:09;;;;;;;7.32;5.60;;;;;;;-147.95;100.00;58458.38;4990819;28;20576;-76
2023/07/27 08:06:55;;;;;;;5.50;5.00;;;;;;;-147.95;100.00;58458.38;5008038;28;20046;-76
2023/07/27 08:09:41;;;;;;;5.85;5.05;;;;;;;-147.95;100.00;58458.38;4990191;28;20464;-76
2023/07/27 08:12:27;;;;;;;6.68;5.65;;;;;;;-147.95;100.00;58458.38;4987872;28;20038;-76
2023/07/27 08:15:12;;;;;;;8.50;4.72;;;;;;;-147.95;100.00;58458.38;4980560;28;20096;-76
2023/07/27 08:17:58;;;;;;;8.93;5.55;;;;;;;-147.95;100.00;58458.38;5007390;28;20066;-76
2023/07/27 08:20:44;;;;;;;7.63;5.55;;;;;;;-147.95;100.00;58458.38;5000941;28;20037;-76
2023/07/27 08:23:30;;;;;;;6.85;5.38;;;;;;;-147.95;100.00;58458.38;5005474;28;20223;-76
2023/07/27 08:26:16;;;;;;;8.43;5.88;;;;;;;-147.95;100.00;58458.38;5002240;28;20524;-76
2023/07/27 08:29:01;;;;;;;10.10;6.00;;;;;;;-147.95;100.00;58458.38;5003248;28;20050;-75
2023/07/27 08:31:47;;;;;;;8.98;6.32;;;;;;;-147.95;100.00;58458.38;5004242;28;20077;-75
2023/07/27 08:34:33;;;;;;;8.73;5.35;;;;;;;-147.95;100.00;58458.38;5007939;28;20436;-76
2023/07/27 08:37:19;;;;;;;7.38;5.15;;;;;;;-147.95;100.00;58458.38;5002140;28;20030;-75
2023/07/27 08:40:08;;;;;;;9.23;5.70;;;;;;;-147.95;100.00;58458.38;5000474;28;20030;-75
2023/07/27 08:42:54;;;;;;;7.35;5.05;;;;;;;-147.95;100.00;58458.38;4995556;28;20466;-76
2023/07/27 08:45:40;;;;;;;9.95;5.60;;;;;;;-147.95;100.00;58458.38;5006649;28;20030;-76
2023/07/27 08:48:28;;;;;;;5.45;3.88;;;;;;;-147.95;100.00;58458.38;4991823;28;20033;-76
2023/07/27 08:51:14;;;;;;;5.65;4.13;;;;;;;-147.95;100.00;58458.38;5004056;28;20036;-76
2023/07/27 08:54:00;;;;;;;9.07;4.28;;;;;;;-147.95;100.00;58458.38;4994657;28;20049;-75
2023/07/27 08:56:45;;;;;;;3.63;3.08;;;;;;;-147.95;100.00;58458.38;5002937;28;20489;-76
2023/07/27 08:59:31;;;;;;;3.83;3.50;;;;;;;-147.95;100.00;58458.38;5004344;28;20045;-77
2023/07/27 09:02:17;;;;;;;3.45;2.83;;;;;;;-147.95;100.00;58458.38;5004394;28;20042;-76
2023/07/27 09:05:03;;;;;;;6.63;3.67;;;;;;;-147.95;100.00;58458.38;4987460;28;20061;-76
2023/07/27 09:07:50;;;;;;;8.38;3.40;;;;;;;-147.95;100.00;58458.38;4965448;28;20061;-76
2023/07/27 09:10:37;;;;;;;4.97;4.30;;;;;;;-147.95;100.00;58458.38;4978613;28;20042;-74
2023/07/27 09:13:30;;;;;;;5.55;3.58;;;;;;;-147.95;100.00;58458.38;4991010;28;20048;-76
2023/07/27 09:16:21;;;;;;;6.80;3.88;;;;;;;-147.95;100.00;58458.38;5000888;28;20037;-76
2023/07/27 09:19:07;;;;;;;7.47;3.25;;;;;;;-147.95;100.00;58458.38;5007465;28;20626;-76
2023/07/27 09:21:56;;;;;;;4.45;2.72;;;;;;;-147.95;100.00;58458.38;5001304;28;20493;-76
2023/07/27 09:24:42;;;;;;;2.83;2.33;;;;;;;-147.95;100.00;58458.38;4966024;28;20046;-76
2023/07/27 09:27:40;;;;;;;2.25;2.05;;;;;;;-147.95;100.00;58458.38;4989107;28;20050;-76
2023/07/27 09:30:26;;;;;;;3.00;2.70;;;;;;;-147.95;100.00;58458.38;5007909;28;20463;-76
2023/07/27 09:33:12;;;;;;;2.67;2.47;;;;;;;-147.95;100.00;58458.38;4984415;28;20594;-76
2023/07/27 09:35:57;;;;;;;4.72;2.47;;;;;;;-147.95;100.00;58458.38;4992946;28;20574;-76
2023/07/27 09:38:43;;;;;;;2.15;1.50;;;;;;;-147.95;100.00;58458.38;5004845;28;20486;-73
2023/07/27 09:41:31;;;;;;;5.72;2.20;;;;;;;-147.95;100.00;58458.38;4990286;28;20030;-74
2023/07/27 09:44:19;;;;;;;3.00;2.00;;;;;;;-147.95;100.00;58458.38;4996417;28;20045;-74
2023/07/27 09:47:05;;;;;;;2.53;1.98;;;;;;;-147.95;100.00;58458.38;4983256;28;20125;-74
2023/07/27 09:49:54;;;;;;;2.97;2.00;;;;;;;-147.95;100.00;58458.38;5007677;28;20030;-74
2023/07/27 09:52:41;;;;;;;3.72;1.67;;;;;;;-147.95;100.00;58458.38;5011435;28;20038;-74
2023/07/27 09:55:29;;;;;;;3.03;1.52;;;;;;;-147.95;100.00;58458.38;4987162;28;20465;-75
2023/07/27 09:58:15;;;;;;;1.70;1.60;;;;;;;-147.95;100.00;58458.38;5008386;28;20051;-75
2023/07/27 10:01:01;;;;;;;4.22;1.77;;;;;;;-147.95;100.00;58458.38;4994176;28;20042;-75
2023/07/27 10:03:46;;;;;;;3.13;1.45;;;;;;;-147.95;100.00;58458.38;4996416;28;20061;-75
2023/07/27 10:06:33;;;;;;;1.30;1.05;;;;;;;-147.95;100.00;58458.38;4992339;28;20078;-75
2023/07/27 10:09:19;;;;;;;2.45;1.20;;;;;;;-147.95;100.00;58458.38;4999960;28;20489;-75
2023/07/27 10:12:04;;;;;;;0.93;0.82;;;;;;;-147.95;100.00;58458.38;5002431;28;20041;-75
2023/07/27 10:15:10;;;;;;;1.15;0.88;;;;;;;-147.95;100.00;58458.38;5001468;28;20042;-75
2023/07/27 10:17:59;;;;;;;3.42;1.38;;;;;;;-147.95;100.00;58458.38;5007279;28;20041;-74
2023/07/27 10:20:45;;;;;;;1.10;0.90;;;;;;;-147.95;100.00;58458.38;4991829;28;20074;-74
2023/07/27 10:23:32;;;;;;;0.60;0.60;;;;;;;-147.95;100.00;58458.38;5004806;28;20120;-75
2023/07/27 10:26:17;;;;;;;0.65;0.60;;;;;;;-147.95;100.00;58458.38;4992106;28;20050;-74
2023/07/27 10:29:22;;;;;;;1.08;0.70;;;;;;;-147.95;100.00;58458.38;5007085;28;20026;-75
2023/07/27 10:32:10;;;;;;;1.83;0.70;;;;;;;-147.95;100.00;58458.38;5007889;28;20037;-75
2023/07/27 10:34:56;;;;;;;1.17;0.60;;;;;;;-147.95;100.00;58458.38;4999240;28;20038;-75
2023/07/27 10:37:53;;;;;;;2.35;0.63;;;;;;;-147.95;100.00;58458.38;5003535;28;20045;-74
2023/07/27 10:40:43;;;;;;;0.98;0.60;;;;;;;-147.95;100.00;58458.38;5008900;28;20072;-75
2023/07/27 10:43:28;;;;;;;1.35;0.75;;;;;;;-147.95;100.00;58458.38;5003700;28;20034;-75
2023/07/27 10:46:21;;;;;;;0.77;0.77;;;;;;;-147.95;100.00;58458.38;5003090;28;20026;-75
2023/07/27 10:49:08;;;;;;;;;;;;;;;-147.95;100.00;58458.38;4989774;28;20133;-74
2023/07/27 10:51:54;;;;;;;1.08;1.00;;;;;;;-147.95;100.00;58458.38;5021078;28;20276;-75
2023/07/27 10:54:41;;;;;;;1.42;0.90;;;;;;;-147.95;100.00;58458.38;5007207;28;20098;-75
2023/07/27 10:57:28;;;;;;;1.65;0.80;;;;;;;-147.95;100.00;58458.38;5004634;28;20038;-75
2023/07/27 11:00:14;;;;;;;0.90;0.80;;;;;;;-147.95;100.00;58458.38;4970929;28;20037;-75
2023/07/27 11:03:00;;;;;;;0.80;0.70;;;;;;;-147.95;100.00;58458.38;5004556;28;20057;-75
2023/07/27 11:06:04;;;;;;;1.80;0.70;;;;;;;-147.95;100.00;58458.38;4979424;28;20061;-75
2023/07/27 11:08:50;;;;;;;;;;;;;;;-147.95;100.00;58458.38;5002561;28;20040;-75
2023/07/27 11:11:35;;;;;;;1.48;0.80;;;;;;;-147.95;100.00;58458.38;5008266;28;19921;-75
2023/07/27 11:14:21;;;;;;;1.67;0.50;;;;;;;-147.95;100.00;58458.38;5007961;28;20100;-75
2023/07/27 11:17:07;;;;;;;2.15;0.60;;;;;;;-147.95;100.00;58458.38;5004184;28;20103;-75
2023/07/27 11:19:53;;;;;;;0.85;0.75;;;;;;;-147.95;100.00;58458.38;5006109;28;20125;-75
2023/07/27 11:22:39;;;;;;;0.93;0.70;;;;;;;-147.95;100.00;58458.38;4994526;28;20061;-75
2023/07/27 11:25:29;;;;;;;3.50;1.00;;;;;;;-147.95;100.00;58458.38;5004858;28;20100;-75
2023/07/27 11:28:16;;;;;;;1.13;0.80;;;;;;;-147.95;100.00;58458.38;4993820;28;20456;-75
2023/07/27 11:31:04;;;;;;;1.13;0.90;;;;;;;-147.95;100.00;58458.38;5004554;28;20066;-75
2023/07/27 11:33:55;;;;;;;1.00;0.90;;;;;;;-147.95;100.00;58458.38;4998370;28;20041;-75
2023/07/27 11:36:41;;;;;;;0.75;0.75;;;;;;;-147.95;100.00;58458.38;5005921;28;20054;-75
2023/07/27 11:39:27;;;;;;;0.88;0.88;;;;;;;-147.95;100.00;58458.38;5007448;28;20044;-76
2023/07/27 11:42:13;;;;;;;0.85;0.85;;;;;;;-147.95;100.00;58458.38;5002937;28;20034;-75
2023/07/27 11:44:59;;;;;;;0.82;0.80;;;;;;;-147.95;100.00;58458.38;5002589;28;20045;-76
2023/07/27 11:47:45;;;;;;;1.00;0.82;;;;;;;-147.95;100.00;58458.38;4997762;28;20045;-75
2023/07/27 11:50:36;;;;;;;2.75;0.80;;;;;;;-147.95;100.00;58458.38;4996600;28;20066;-75
2023/07/27 11:53:28;;;;;;;0.98;0.90;;;;;;;-147.95;100.00;58458.38;4997804;28;20034;-75
2023/07/27 11:56:14;;;;;;;0.90;0.90;;;;;;;-147.95;100.00;58458.38;4999961;28;20178;-76
2023/07/27 11:58:59;;;;;;;2.15;1.02;;;;;;;-147.95;100.00;58458.38;4987061;28;20042;-75
2023/07/27 12:01:48;;;;;;;1.55;1.08;;;;;;;-147.95;100.00;58458.38;5006065;28;20045;-75
2023/07/27 12:04:34;;;;;;;1.25;1.15;;;;;;;-147.95;100.00;58458.38;4997863;28;20479;-75
2023/07/27 12:07:19;;;;;;;1.60;1.30;;;;;;;-147.95;100.00;58458.38;5002743;28;20642;-75
2023/07/27 12:10:11;;;;;;;1.40;0.95;;;;;;;-147.95;100.00;58458.38;4974538;28;20033;-75
2023/07/27 12:13:01;;;;;;;1.20;1.08;;;;;;;-147.95;100.00;58458.38;5004892;28;20034;-75
2023/07/27 12:15:54;;;;;;;1.60;1.50;;;;;;;-147.95;100.00;58458.38;5005592;28;20054;-75
2023/07/27 12:18:39;;;;;;;;;;;;;;;-147.95;100.00;58458.38;5021107;28;20433;-75
2023/07/27 12:21:25;;;;;;;1.50;1.40;;;;;;;-147.95;100.00;58458.38;5006160;28;19917;-76
2023/07/27 12:24:11;;;;;;;5.75;1.80;;;;;;;-147.95;100.00;58458.38;4998051;28;20038;-75
2023/07/27 12:26:58;;;;;;;3.45;1.23;;;;;;;-147.95;100.00;58458.38;4979140;28;20469;-75
2023/07/27 12:29:44;;;;;;;0.90;0.90;;;;;;;-147.95;100.00;58458.38;5002989;28;20097;-75
2023/07/27 12:32:30;;;;;;;4.97;1.00;;;;;;;-147.95;100.00;58458.38;5003277;28;20096;-75